This is the latest recevied weather packets stored in our database for station/object CN8UN-10. If no packets are shown the sender has not sent any weather packets the latest 1 day(s).
| Time | Temp. | Humidity | Pressure | Rain* | Wind** | Luminosity | Snow |
|---|---|---|---|---|---|---|---|
| 1777981797 | 20° C | 100% | 0 hPa | 0 mm | 2.24 m/s, 327° | - | - |
| 1777981497 | 20° C | 100% | 0 hPa | 0 mm | 0.45 m/s, 139° | - | - |
| 1777981197 | 20° C | 100% | 0 hPa | 0 mm | 0.89 m/s, 315° | - | - |
| 1777980897 | 20° C | 100% | 0 hPa | 0 mm | 0 m/s | - | - |
| 1777980597 | 20° C | 100% | 0 hPa | 0 mm | 2.24 m/s, 300° | - | - |
| 1777980297 | 20° C | 100% | 0 hPa | 0 mm | 0 m/s | - | - |
| 1777979997 | 20° C | 100% | 0 hPa | 0 mm | 3.58 m/s, 305° | - | - |
| 1777979697 | 20° C | 100% | 0 hPa | 0 mm | 3.13 m/s, 21° | - | - |
| 1777979397 | 20° C | 100% | 0 hPa | 0 mm | 0.89 m/s, 11° | - | - |
| 1777979097 | 20° C | 100% | 0 hPa | 0 mm | 2.68 m/s, 355° | - | - |
| 1777978797 | 20° C | 100% | 0 hPa | 0 mm | 0.45 m/s, 111° | - | - |
| 1777978497 | 19.44° C | 100% | 0 hPa | 0 mm | 2.68 m/s, 286° | - | - |
| 1777978197 | 19.44° C | 100% | 0 hPa | 0 mm | 1.79 m/s, 23° | - | - |
| 1777977897 | 19.44° C | 100% | 0 hPa | 0 mm | 1.34 m/s, 5° | - | - |
| 1777977597 | 19.44° C | 100% | 0 hPa | 0 mm | 0 m/s | - | - |
| 1777977297 | 19.44° C | 100% | 0 hPa | 0 mm | 1.34 m/s, 52° | - | - |
| 1777976997 | 19.44° C | 100% | 0 hPa | 0 mm | 0.89 m/s, 288° | - | - |
| 1777976697 | 19.44° C | 100% | 0 hPa | 0 mm | 0.45 m/s, 354° | - | - |
| 1777976397 | 19.44° C | 100% | 0 hPa | 0 mm | 0.89 m/s, 286° | - | - |
| 1777976097 | 19.44° C | 100% | 0 hPa | 0 mm | 2.68 m/s, 338° | - | - |
| 1777975797 | 19.44° C | 100% | 0 hPa | 0 mm | 0.89 m/s, 66° | - | - |
| 1777975497 | 18.89° C | 100% | 0 hPa | 0 mm | 0 m/s | - | - |
| 1777975197 | 18.89° C | 100% | 0 hPa | 0 mm | 0 m/s | - | - |
| 1777974897 | 18.89° C | 100% | 0 hPa | 0 mm | 0 m/s | - | - |
| 1777974597 | 18.89° C | 100% | 0 hPa | 0 mm | 0 m/s | - | - |
* Rain latest hour (hover to see other rain measurements)
** Current wind speed in m/s (hover to see current wind gust speed)